createdAt,value
2022-11-21T00:05:24.261Z,12.5
2022-11-21T00:11:08.023Z,12.5
2022-11-21T00:16:57.257Z,12.5
2022-11-21T00:22:40.210Z,12.5
2022-11-21T00:28:16.291Z,12.6
2022-11-21T00:33:59.663Z,12.6
2022-11-21T00:39:34.807Z,12.6
2022-11-21T00:45:31.569Z,12.6
2022-11-21T00:51:07.896Z,12.6
2022-11-21T00:56:45.731Z,12.6
2022-11-21T01:03:21.294Z,12.6
2022-11-21T01:09:05.521Z,12.6
2022-11-21T01:15:21.067Z,12.6
2022-11-21T01:20:56.275Z,12.6
2022-11-21T01:26:37.661Z,12.5
2022-11-21T01:32:12.519Z,12.5
2022-11-21T01:37:53.349Z,12.6
2022-11-21T01:43:35.282Z,12.6
2022-11-21T01:49:33.414Z,12.6
2022-11-21T01:55:06.256Z,12.6
2022-11-21T02:01:02.445Z,12.5
2022-11-21T02:06:38.311Z,12.6
2022-11-21T02:12:15.925Z,12.5
2022-11-21T02:17:51.781Z,12.5
2022-11-21T02:23:39.365Z,12.6
2022-11-21T02:29:17.788Z,12.6
2022-11-21T02:34:55.633Z,12.6
2022-11-21T02:40:39.316Z,12.6
2022-11-21T02:46:35.817Z,12.6
2022-11-21T02:52:08.866Z,12.6
2022-11-21T02:57:47.121Z,12.6
2022-11-21T03:03:25.879Z,12.6
2022-11-21T03:09:00.980Z,12.6
2022-11-21T03:15:18.162Z,12.6
2022-11-21T03:20:53.458Z,12.6
2022-11-21T03:26:30.829Z,12.6
2022-11-21T03:32:06.660Z,12.6
2022-11-21T03:38:04.154Z,12.6
2022-11-21T03:43:44.666Z,12.6
2022-11-21T03:49:41.476Z,12.6
2022-11-21T03:55:14.873Z,12.6
2022-11-21T04:00:58.023Z,12.5
2022-11-21T04:06:34.501Z,12.5
2022-11-21T04:12:16.921Z,12.5
2022-11-21T04:17:51.745Z,12.6
2022-11-21T04:23:34.631Z,12.5
2022-11-21T04:29:15.992Z,12.5
2022-11-21T04:36:35.594Z,12.5
2022-11-21T04:42:22.675Z,12.5
2022-11-21T04:48:21.657Z,12.6
2022-11-21T04:53:54.346Z,12.5
2022-11-21T04:59:38.851Z,12.5
2022-11-21T05:05:25.523Z,12.5
2022-11-21T05:11:24.541Z,12.5
2022-11-21T05:16:59.425Z,12.5
2022-11-21T05:22:35.679Z,12.6
2022-11-21T05:28:14.249Z,12.6
2022-11-21T05:33:54.380Z,12.6
2022-11-21T05:39:30.553Z,12.6
2022-11-21T05:45:14.727Z,12.5
2022-11-21T05:50:59.135Z,12.6
2022-11-21T05:56:35.191Z,12.6
2022-11-21T06:02:10.372Z,12.6
2022-11-21T06:07:51.833Z,12.6
2022-11-21T06:13:52.528Z,12.6
2022-11-21T06:19:49.186Z,12.6
2022-11-21T06:25:24.155Z,12.6
2022-11-21T06:31:04.802Z,12.6
2022-11-21T06:36:40.010Z,12.6
2022-11-21T06:42:29.850Z,12.6
2022-11-21T06:49:11.641Z,12.6
2022-11-21T06:54:44.537Z,12.6
2022-11-21T07:00:21.054Z,12.6
2022-11-21T07:06:05.448Z,12.6
2022-11-21T07:11:53.497Z,12.6
2022-11-21T07:17:42.515Z,12.5
2022-11-21T07:23:18.714Z,12.6
2022-11-21T07:28:54.610Z,12
2022-11-21T07:34:29.444Z,11.5
2022-11-21T07:40:06.166Z,11.2
2022-11-21T07:45:41.220Z,11.1
2022-11-21T07:51:16.103Z,11.2
2022-11-21T07:56:51.054Z,11.3
2022-11-21T08:02:26.165Z,11.4
2022-11-21T08:08:01.289Z,11.4
2022-11-21T08:13:36.717Z,11.3
2022-11-21T08:19:12.045Z,11.3
2022-11-21T08:24:47.800Z,11.3
2022-11-21T08:30:24.086Z,11.5
2022-11-21T08:35:59.197Z,11.9
2022-11-21T08:41:34.417Z,12
2022-11-21T08:47:31.082Z,12.2
2022-11-21T08:53:04.713Z,12
2022-11-21T08:58:40.490Z,11.8
2022-11-21T09:04:16.765Z,11.9
2022-11-21T09:09:54.550Z,11.6
2022-11-21T09:15:29.592Z,11.6
2022-11-21T09:21:05.347Z,11.8
2022-11-21T09:26:40.636Z,11.9
2022-11-21T09:32:15.686Z,12
2022-11-21T09:37:51.154Z,11.9
2022-11-21T09:43:27.342Z,12.1
2022-11-21T09:49:24.086Z,12.6
2022-11-21T09:54:59.318Z,12.9
2022-11-21T10:00:34.276Z,12.9
2022-11-21T10:06:11.267Z,13.2
2022-11-21T10:11:48.093Z,13.7
2022-11-21T10:17:32.427Z,14
2022-11-21T10:23:07.202Z,13.7
2022-11-21T10:28:43.504Z,13.7
2022-11-21T10:34:19.075Z,13.7
2022-11-21T10:39:54.604Z,13.7
2022-11-21T10:45:31.477Z,13.7
2022-11-21T10:51:06.956Z,13.4
2022-11-21T10:56:42.554Z,13.4
2022-11-21T11:02:17.991Z,13.8
2022-11-21T11:07:52.878Z,14.4
2022-11-21T11:19:39.844Z,14.7
2022-11-21T11:25:18.498Z,14.5
2022-11-21T11:30:55.354Z,14
2022-11-21T11:36:31.456Z,13.5
2022-11-21T11:42:06.594Z,13
2022-11-21T11:48:13.508Z,12.5
2022-11-21T11:53:47.004Z,12.3
2022-11-21T11:59:23.116Z,12.3
2022-11-21T12:04:57.947Z,12.3
2022-11-21T12:10:33.436Z,12.3
2022-11-21T12:16:13.336Z,12.3
2022-11-21T12:21:49.626Z,12.4
2022-11-21T12:27:24.741Z,12.5
2022-11-21T12:33:05.127Z,12.4
2022-11-21T12:38:45.375Z,12.4
2022-11-21T12:44:22.800Z,12.2
2022-11-21T12:49:58.433Z,12.2
2022-11-21T12:55:42.129Z,12.1
2022-11-21T13:01:23.991Z,12
2022-11-21T13:07:08.862Z,11.9
2022-11-21T13:12:45.096Z,12
2022-11-21T13:18:21.370Z,12
2022-11-21T13:23:56.419Z,12
2022-11-21T13:29:32.169Z,11.9
2022-11-21T13:35:10.796Z,12
2022-11-21T13:40:57.039Z,12
2022-11-21T13:46:34.596Z,12.1
2022-11-21T13:52:10.208Z,12.2
2022-11-21T13:57:45.084Z,12.1
2022-11-21T14:03:20.665Z,12
2022-11-21T14:08:56.013Z,11.6
2022-11-21T14:14:31.087Z,11.7
2022-11-21T14:20:16.276Z,11.3
2022-11-21T14:25:51.469Z,11.2
2022-11-21T14:31:26.808Z,11.1
2022-11-21T14:37:02.447Z,11
2022-11-21T14:42:37.726Z,11
2022-11-21T14:48:13.392Z,11
2022-11-21T14:53:49.034Z,10.7
2022-11-21T14:59:24.962Z,10.6
2022-11-21T15:05:00.207Z,10.6
2022-11-21T15:10:35.613Z,10.5
2022-11-21T15:16:15.152Z,10.3
2022-11-21T15:22:11.246Z,10.2
2022-11-21T15:27:47.336Z,10.2
2022-11-21T15:33:23.063Z,10.1
2022-11-21T15:38:57.994Z,10.1
2022-11-21T15:44:39.324Z,10
2022-11-21T15:50:15.289Z,9.7
2022-11-21T15:55:50.473Z,9.6
2022-11-21T16:01:25.503Z,9.4
2022-11-21T16:07:02.742Z,9.5
2022-11-21T16:12:39.307Z,9.4
2022-11-21T16:18:15.439Z,9.4
2022-11-21T16:23:52.086Z,9.4
2022-11-21T16:29:27.300Z,9.4
2022-11-21T16:35:06.744Z,9.3
2022-11-21T16:40:42.145Z,9.3
2022-11-21T16:46:18.831Z,9.2
2022-11-21T16:51:54.012Z,9.3
2022-11-21T16:57:28.819Z,9.2
2022-11-21T17:03:13.517Z,9.2
2022-11-21T17:08:49.050Z,9.3
2022-11-21T17:14:24.509Z,9.7
2022-11-21T17:20:03.080Z,10.2
2022-11-21T17:25:38.262Z,10.4
2022-11-21T17:31:19.385Z,10.5
2022-11-21T17:36:54.786Z,10.6
2022-11-21T17:42:35.662Z,10.7
2022-11-21T17:48:12.497Z,10.8
2022-11-21T17:53:49.942Z,10.8
2022-11-21T17:59:25.020Z,10.9
2022-11-21T18:05:02.468Z,10.9
2022-11-21T18:10:43.170Z,11
2022-11-21T18:16:59.944Z,11
2022-11-21T18:22:47.245Z,11
2022-11-21T18:28:28.082Z,11
2022-11-21T18:34:02.960Z,11.1
2022-11-21T18:39:44.764Z,11.1
2022-11-21T18:45:20.628Z,11.1
2022-11-21T18:50:58.070Z,11.1
2022-11-21T18:56:34.339Z,11
2022-11-21T19:02:22.549Z,11
2022-11-21T19:08:04.794Z,11
2022-11-21T19:13:39.929Z,11
2022-11-21T19:19:34.418Z,11
2022-11-21T19:25:11.444Z,11
2022-11-21T19:31:00.490Z,11
2022-11-21T19:36:35.345Z,11
2022-11-21T19:42:18.434Z,11
2022-11-21T19:47:56.734Z,11.1
2022-11-21T19:53:32.960Z,11
2022-11-21T19:59:08.521Z,11.1
2022-11-21T20:04:58.764Z,11.1
2022-11-21T20:10:33.873Z,11.1
2022-11-21T20:16:15.904Z,11.1
2022-11-21T20:21:50.988Z,11
2022-11-21T20:27:34.865Z,11
2022-11-21T20:33:29.187Z,10.9
2022-11-21T20:39:04.280Z,10.9
2022-11-21T20:59:48.571Z,10.9
2022-11-21T21:05:23.362Z,10.9
2022-11-21T21:11:05.951Z,10.8
2022-11-21T21:17:29.096Z,10.9
2022-11-21T21:23:06.579Z,10.9
2022-11-21T21:28:41.683Z,10.8
2022-11-21T21:34:16.762Z,10.9
2022-11-21T21:39:51.857Z,10.9
2022-11-21T21:45:27.044Z,10.8
2022-11-21T21:51:02.495Z,10.8
2022-11-21T21:56:38.006Z,10.7
2022-11-21T22:02:13.438Z,10.7
2022-11-21T22:07:49.361Z,10.7
2022-11-21T22:13:29.302Z,10.7
2022-11-21T22:19:04.912Z,10.7
2022-11-21T22:24:40.837Z,10.8
2022-11-21T22:30:19.017Z,10.7
2022-11-21T22:35:54.250Z,10.7
2022-11-21T22:41:32.756Z,10.6
2022-11-21T22:47:29.565Z,10.7
2022-11-21T22:53:03.808Z,10.6
2022-11-21T22:58:40.165Z,10.6
2022-11-21T23:04:36.161Z,10.6
2022-11-21T23:10:11.224Z,10.6
2022-11-21T23:15:55.427Z,10.6
2022-11-21T23:21:39.198Z,10.6
2022-11-21T23:27:29.242Z,10.6
2022-11-21T23:33:05.449Z,10.6
2022-11-21T23:38:40.436Z,10.6
2022-11-21T23:44:22.428Z,10.6
2022-11-21T23:49:57.129Z,10.6
2022-11-21T23:55:38.433Z,10.6
